sensor_id;sensor_type;location;lat;lon;timestamp;temperature;humidity
4643;DHT22;2334;48.710;9.622;2023-06-22T00:01:58;21.30;99.90
4643;DHT22;2334;48.710;9.622;2023-06-22T00:04:25;21.20;99.90
4643;DHT22;2334;48.710;9.622;2023-06-22T00:06:51;21.20;99.90
4643;DHT22;2334;48.710;9.622;2023-06-22T00:09:18;21.10;99.90
4643;DHT22;2334;48.710;9.622;2023-06-22T00:11:46;21.00;99.90
4643;DHT22;2334;48.710;9.622;2023-06-22T00:14:14;20.90;99.90
4643;DHT22;2334;48.710;9.622;2023-06-22T00:16:41;20.90;99.90
4643;DHT22;2334;48.710;9.622;2023-06-22T00:19:08;20.90;99.90
4643;DHT22;2334;48.710;9.622;2023-06-22T00:21:37;20.90;99.90
4643;DHT22;2334;48.710;9.622;2023-06-22T00:24:04;20.70;99.90
4643;DHT22;2334;48.710;9.622;2023-06-22T00:26:32;20.80;99.90
4643;DHT22;2334;48.710;9.622;2023-06-22T00:28:59;20.80;99.90
4643;DHT22;2334;48.710;9.622;2023-06-22T00:31:27;20.80;99.90
4643;DHT22;2334;48.710;9.622;2023-06-22T00:33:54;20.80;99.90
4643;DHT22;2334;48.710;9.622;2023-06-22T00:36:21;20.80;99.90
4643;DHT22;2334;48.710;9.622;2023-06-22T00:38:48;20.80;99.90
4643;DHT22;2334;48.710;9.622;2023-06-22T00:41:16;20.80;99.90
4643;DHT22;2334;48.710;9.622;2023-06-22T00:43:43;20.70;99.90
4643;DHT22;2334;48.710;9.622;2023-06-22T00:46:10;20.60;99.90
4643;DHT22;2334;48.710;9.622;2023-06-22T00:48:38;20.60;99.90
4643;DHT22;2334;48.710;9.622;2023-06-22T00:51:07;20.50;99.90
4643;DHT22;2334;48.710;9.622;2023-06-22T00:53:34;20.40;99.90
4643;DHT22;2334;48.710;9.622;2023-06-22T00:56:04;20.40;99.90
4643;DHT22;2334;48.710;9.622;2023-06-22T00:58:31;20.30;99.90
4643;DHT22;2334;48.710;9.622;2023-06-22T01:00:58;20.30;99.90
4643;DHT22;2334;48.710;9.622;2023-06-22T01:03:25;20.30;99.90
4643;DHT22;2334;48.710;9.622;2023-06-22T01:05:56;20.20;99.90
4643;DHT22;2334;48.710;9.622;2023-06-22T01:08:31;20.10;99.90
4643;DHT22;2334;48.710;9.622;2023-06-22T01:11:04;20.10;99.90
4643;DHT22;2334;48.710;9.622;2023-06-22T01:13:37;20.10;99.90
4643;DHT22;2334;48.710;9.622;2023-06-22T01:16:09;20.10;99.90
4643;DHT22;2334;48.710;9.622;2023-06-22T01:18:40;20.00;99.90
4643;DHT22;2334;48.710;9.622;2023-06-22T01:21:13;20.00;99.90
4643;DHT22;2334;48.710;9.622;2023-06-22T01:23:53;20.00;99.90
4643;DHT22;2334;48.710;9.622;2023-06-22T01:26:31;19.90;99.90
4643;DHT22;2334;48.710;9.622;2023-06-22T01:29:04;19.90;99.90
4643;DHT22;2334;48.710;9.622;2023-06-22T01:31:33;19.90;99.90
4643;DHT22;2334;48.710;9.622;2023-06-22T01:34:03;19.90;99.90
4643;DHT22;2334;48.710;9.622;2023-06-22T01:36:31;19.90;99.90
4643;DHT22;2334;48.710;9.622;2023-06-22T01:38:59;19.80;99.90
4643;DHT22;2334;48.710;9.622;2023-06-22T01:41:29;19.80;99.90
4643;DHT22;2334;48.710;9.622;2023-06-22T01:43:56;19.80;99.90
4643;DHT22;2334;48.710;9.622;2023-06-22T01:46:25;19.70;99.90
4643;DHT22;2334;48.710;9.622;2023-06-22T01:48:52;19.80;99.90
4643;DHT22;2334;48.710;9.622;2023-06-22T01:51:19;19.80;99.90
4643;DHT22;2334;48.710;9.622;2023-06-22T01:53:46;19.80;99.90
4643;DHT22;2334;48.710;9.622;2023-06-22T01:56:15;19.70;99.90
4643;DHT22;2334;48.710;9.622;2023-06-22T01:58:48;19.60;99.90
4643;DHT22;2334;48.710;9.622;2023-06-22T02:01:23;19.50;99.90
4643;DHT22;2334;48.710;9.622;2023-06-22T02:03:57;19.60;99.90
4643;DHT22;2334;48.710;9.622;2023-06-22T02:06:31;19.60;99.90
4643;DHT22;2334;48.710;9.622;2023-06-22T02:09:02;19.60;99.90
4643;DHT22;2334;48.710;9.622;2023-06-22T02:11:33;19.60;99.90
4643;DHT22;2334;48.710;9.622;2023-06-22T02:14:01;19.60;99.90
4643;DHT22;2334;48.710;9.622;2023-06-22T02:16:30;19.60;99.90
4643;DHT22;2334;48.710;9.622;2023-06-22T02:19:01;19.60;99.90
4643;DHT22;2334;48.710;9.622;2023-06-22T02:21:28;19.60;99.90
4643;DHT22;2334;48.710;9.622;2023-06-22T02:23:55;19.60;99.90
4643;DHT22;2334;48.710;9.622;2023-06-22T02:26:23;19.60;99.90
4643;DHT22;2334;48.710;9.622;2023-06-22T02:28:51;19.60;99.90
4643;DHT22;2334;48.710;9.622;2023-06-22T02:31:18;19.50;99.90
4643;DHT22;2334;48.710;9.622;2023-06-22T02:33:45;19.50;99.90
4643;DHT22;2334;48.710;9.622;2023-06-22T02:36:15;19.50;99.90
4643;DHT22;2334;48.710;9.622;2023-06-22T02:38:43;19.40;99.90
4643;DHT22;2334;48.710;9.622;2023-06-22T02:41:13;19.40;99.90
4643;DHT22;2334;48.710;9.622;2023-06-22T02:43:44;19.40;99.90
4643;DHT22;2334;48.710;9.622;2023-06-22T02:46:11;19.40;99.90
4643;DHT22;2334;48.710;9.622;2023-06-22T02:48:38;19.40;99.90
4643;DHT22;2334;48.710;9.622;2023-06-22T02:51:05;19.40;99.90
4643;DHT22;2334;48.710;9.622;2023-06-22T02:53:34;19.30;99.90
4643;DHT22;2334;48.710;9.622;2023-06-22T02:56:02;19.40;99.90
4643;DHT22;2334;48.710;9.622;2023-06-22T02:58:30;19.40;99.90
4643;DHT22;2334;48.710;9.622;2023-06-22T03:01:03;19.40;99.90
4643;DHT22;2334;48.710;9.622;2023-06-22T03:03:30;19.40;99.90
4643;DHT22;2334;48.710;9.622;2023-06-22T03:05:57;19.40;99.90
4643;DHT22;2334;48.710;9.622;2023-06-22T03:08:24;19.50;99.90
4643;DHT22;2334;48.710;9.622;2023-06-22T03:10:52;19.40;99.90
4643;DHT22;2334;48.710;9.622;2023-06-22T03:13:19;19.40;99.90
4643;DHT22;2334;48.710;9.622;2023-06-22T03:15:46;19.30;99.90
4643;DHT22;2334;48.710;9.622;2023-06-22T03:18:13;19.30;99.90
4643;DHT22;2334;48.710;9.622;2023-06-22T03:20:41;19.30;99.90
4643;DHT22;2334;48.710;9.622;2023-06-22T03:23:08;19.30;99.90
4643;DHT22;2334;48.710;9.622;2023-06-22T03:25:35;19.30;99.90
4643;DHT22;2334;48.710;9.622;2023-06-22T03:28:04;19.30;99.90
4643;DHT22;2334;48.710;9.622;2023-06-22T03:30:30;19.30;99.90
4643;DHT22;2334;48.710;9.622;2023-06-22T03:32:58;19.30;99.90
4643;DHT22;2334;48.710;9.622;2023-06-22T03:35:24;19.30;99.90
4643;DHT22;2334;48.710;9.622;2023-06-22T03:37:51;19.30;99.90
4643;DHT22;2334;48.710;9.622;2023-06-22T03:40:18;19.20;99.90
4643;DHT22;2334;48.710;9.622;2023-06-22T03:42:45;19.20;99.90
4643;DHT22;2334;48.710;9.622;2023-06-22T03:45:14;19.10;99.90
4643;DHT22;2334;48.710;9.622;2023-06-22T03:47:41;19.10;99.90
4643;DHT22;2334;48.710;9.622;2023-06-22T03:50:08;19.10;99.90
4643;DHT22;2334;48.710;9.622;2023-06-22T03:52:35;19.10;99.90
4643;DHT22;2334;48.710;9.622;2023-06-22T03:55:03;19.10;99.90
4643;DHT22;2334;48.710;9.622;2023-06-22T03:57:30;19.10;99.90
4643;DHT22;2334;48.710;9.622;2023-06-22T03:59:57;19.10;99.90
4643;DHT22;2334;48.710;9.622;2023-06-22T04:02:26;19.10;99.90
4643;DHT22;2334;48.710;9.622;2023-06-22T04:04:53;19.00;99.90
4643;DHT22;2334;48.710;9.622;2023-06-22T04:07:20;19.00;99.90
4643;DHT22;2334;48.710;9.622;2023-06-22T04:09:46;19.10;99.90
4643;DHT22;2334;48.710;9.622;2023-06-22T04:12:13;19.20;99.90
4643;DHT22;2334;48.710;9.622;2023-06-22T04:14:40;19.20;99.90
4643;DHT22;2334;48.710;9.622;2023-06-22T04:17:07;19.30;99.90
4643;DHT22;2334;48.710;9.622;2023-06-22T04:19:35;19.30;99.90
4643;DHT22;2334;48.710;9.622;2023-06-22T04:22:02;19.30;99.90
4643;DHT22;2334;48.710;9.622;2023-06-22T04:24:29;19.30;99.90
4643;DHT22;2334;48.710;9.622;2023-06-22T04:26:56;19.30;99.90
4643;DHT22;2334;48.710;9.622;2023-06-22T04:29:23;19.40;99.90
4643;DHT22;2334;48.710;9.622;2023-06-22T04:31:54;19.40;99.90
4643;DHT22;2334;48.710;9.622;2023-06-22T04:34:23;19.50;99.90
4643;DHT22;2334;48.710;9.622;2023-06-22T04:36:53;19.50;99.90
4643;DHT22;2334;48.710;9.622;2023-06-22T04:39:20;19.60;99.90
4643;DHT22;2334;48.710;9.622;2023-06-22T04:41:47;19.60;99.90
4643;DHT22;2334;48.710;9.622;2023-06-22T04:44:15;19.70;99.90
4643;DHT22;2334;48.710;9.622;2023-06-22T04:46:49;19.70;99.90
4643;DHT22;2334;48.710;9.622;2023-06-22T04:49:20;19.80;99.90
4643;DHT22;2334;48.710;9.622;2023-06-22T04:51:47;19.80;99.90
4643;DHT22;2334;48.710;9.622;2023-06-22T04:54:16;19.80;99.90
4643;DHT22;2334;48.710;9.622;2023-06-22T04:56:42;19.90;99.90
4643;DHT22;2334;48.710;9.622;2023-06-22T04:59:12;20.00;99.90
4643;DHT22;2334;48.710;9.622;2023-06-22T05:01:39;20.00;99.90
4643;DHT22;2334;48.710;9.622;2023-06-22T05:04:06;20.10;99.90
4643;DHT22;2334;48.710;9.622;2023-06-22T05:06:33;20.10;99.90
4643;DHT22;2334;48.710;9.622;2023-06-22T05:09:00;20.20;99.90
4643;DHT22;2334;48.710;9.622;2023-06-22T05:11:30;20.30;99.90
4643;DHT22;2334;48.710;9.622;2023-06-22T05:13:56;20.30;99.90
4643;DHT22;2334;48.710;9.622;2023-06-22T05:16:24;20.40;99.90
4643;DHT22;2334;48.710;9.622;2023-06-22T05:18:52;20.50;99.90
4643;DHT22;2334;48.710;9.622;2023-06-22T05:21:22;20.60;99.90
4643;DHT22;2334;48.710;9.622;2023-06-22T05:23:49;20.70;99.90
4643;DHT22;2334;48.710;9.622;2023-06-22T05:26:16;20.80;99.90
4643;DHT22;2334;48.710;9.622;2023-06-22T05:28:45;20.90;99.90
4643;DHT22;2334;48.710;9.622;2023-06-22T05:31:13;21.00;99.90
4643;DHT22;2334;48.710;9.622;2023-06-22T05:33:40;21.10;99.90
4643;DHT22;2334;48.710;9.622;2023-06-22T05:36:07;21.10;99.90
4643;DHT22;2334;48.710;9.622;2023-06-22T05:38:34;21.20;99.90
4643;DHT22;2334;48.710;9.622;2023-06-22T05:41:01;21.30;99.90
4643;DHT22;2334;48.710;9.622;2023-06-22T05:43:28;21.40;99.90
4643;DHT22;2334;48.710;9.622;2023-06-22T05:45:57;21.40;99.90
4643;DHT22;2334;48.710;9.622;2023-06-22T05:48:24;21.50;99.90
4643;DHT22;2334;48.710;9.622;2023-06-22T05:50:51;21.60;99.90
4643;DHT22;2334;48.710;9.622;2023-06-22T05:53:18;21.70;99.90
4643;DHT22;2334;48.710;9.622;2023-06-22T05:55:45;21.80;99.90
4643;DHT22;2334;48.710;9.622;2023-06-22T05:58:12;22.00;99.90
4643;DHT22;2334;48.710;9.622;2023-06-22T06:00:40;22.10;99.90
4643;DHT22;2334;48.710;9.622;2023-06-22T06:03:09;22.20;99.90
4643;DHT22;2334;48.710;9.622;2023-06-22T06:05:36;22.30;99.90
4643;DHT22;2334;48.710;9.622;2023-06-22T06:08:05;22.40;99.90
4643;DHT22;2334;48.710;9.622;2023-06-22T06:10:33;22.50;99.90
4643;DHT22;2334;48.710;9.622;2023-06-22T06:13:00;22.60;99.90
4643;DHT22;2334;48.710;9.622;2023-06-22T06:15:30;22.60;99.90
4643;DHT22;2334;48.710;9.622;2023-06-22T06:17:57;22.70;99.90
4643;DHT22;2334;48.710;9.622;2023-06-22T06:20:26;22.80;99.90
4643;DHT22;2334;48.710;9.622;2023-06-22T06:22:54;22.90;99.90
4643;DHT22;2334;48.710;9.622;2023-06-22T06:25:21;23.00;99.90
4643;DHT22;2334;48.710;9.622;2023-06-22T06:27:49;23.10;99.90
4643;DHT22;2334;48.710;9.622;2023-06-22T06:30:18;23.20;99.90
4643;DHT22;2334;48.710;9.622;2023-06-22T06:32:45;23.30;99.90
4643;DHT22;2334;48.710;9.622;2023-06-22T06:35:14;23.50;99.90
4643;DHT22;2334;48.710;9.622;2023-06-22T06:37:43;23.70;99.90
4643;DHT22;2334;48.710;9.622;2023-06-22T06:40:11;23.80;99.90
4643;DHT22;2334;48.710;9.622;2023-06-22T06:42:39;24.10;99.90
4643;DHT22;2334;48.710;9.622;2023-06-22T06:45:08;24.20;99.90
4643;DHT22;2334;48.710;9.622;2023-06-22T06:47:35;24.40;99.90
4643;DHT22;2334;48.710;9.622;2023-06-22T06:50:02;24.70;99.90
4643;DHT22;2334;48.710;9.622;2023-06-22T06:52:29;24.80;99.90
4643;DHT22;2334;48.710;9.622;2023-06-22T06:54:57;24.90;99.90
4643;DHT22;2334;48.710;9.622;2023-06-22T06:57:24;25.10;99.90
4643;DHT22;2334;48.710;9.622;2023-06-22T06:59:54;25.20;99.90
4643;DHT22;2334;48.710;9.622;2023-06-22T07:02:22;25.30;99.90
4643;DHT22;2334;48.710;9.622;2023-06-22T07:04:49;25.40;99.90
4643;DHT22;2334;48.710;9.622;2023-06-22T07:07:16;25.60;99.90
4643;DHT22;2334;48.710;9.622;2023-06-22T07:09:43;25.60;99.90
4643;DHT22;2334;48.710;9.622;2023-06-22T07:12:11;25.80;99.90
4643;DHT22;2334;48.710;9.622;2023-06-22T07:14:38;25.90;99.90
4643;DHT22;2334;48.710;9.622;2023-06-22T07:17:05;26.10;99.90
4643;DHT22;2334;48.710;9.622;2023-06-22T07:19:32;26.00;99.90
4643;DHT22;2334;48.710;9.622;2023-06-22T07:21:59;26.20;99.90
4643;DHT22;2334;48.710;9.622;2023-06-22T07:24:26;26.40;99.90
4643;DHT22;2334;48.710;9.622;2023-06-22T07:26:53;26.50;99.90
4643;DHT22;2334;48.710;9.622;2023-06-22T07:29:22;26.60;99.90
4643;DHT22;2334;48.710;9.622;2023-06-22T07:31:50;26.50;99.90
4643;DHT22;2334;48.710;9.622;2023-06-22T07:34:17;26.60;99.90
4643;DHT22;2334;48.710;9.622;2023-06-22T07:36:45;26.70;99.90
4643;DHT22;2334;48.710;9.622;2023-06-22T07:39:12;26.90;99.90
4643;DHT22;2334;48.710;9.622;2023-06-22T07:41:39;27.00;99.90
4643;DHT22;2334;48.710;9.622;2023-06-22T07:44:07;27.10;99.90
4643;DHT22;2334;48.710;9.622;2023-06-22T07:46:36;27.20;99.90
4643;DHT22;2334;48.710;9.622;2023-06-22T07:49:02;27.30;99.90
4643;DHT22;2334;48.710;9.622;2023-06-22T07:51:29;27.30;99.90
4643;DHT22;2334;48.710;9.622;2023-06-22T07:53:56;27.30;99.90
4643;DHT22;2334;48.710;9.622;2023-06-22T07:56:23;27.40;99.90
4643;DHT22;2334;48.710;9.622;2023-06-22T07:58:50;27.60;99.90
4643;DHT22;2334;48.710;9.622;2023-06-22T08:01:17;27.60;99.90
4643;DHT22;2334;48.710;9.622;2023-06-22T08:03:47;27.90;99.90
4643;DHT22;2334;48.710;9.622;2023-06-22T08:06:14;27.90;99.90
4643;DHT22;2334;48.710;9.622;2023-06-22T08:08:41;27.90;99.90
4643;DHT22;2334;48.710;9.622;2023-06-22T08:11:09;28.00;99.90
4643;DHT22;2334;48.710;9.622;2023-06-22T08:13:36;28.20;99.90
4643;DHT22;2334;48.710;9.622;2023-06-22T08:16:03;28.50;99.90
4643;DHT22;2334;48.710;9.622;2023-06-22T08:18:30;28.30;99.90
4643;DHT22;2334;48.710;9.622;2023-06-22T08:20:58;28.50;99.90
4643;DHT22;2334;48.710;9.622;2023-06-22T08:23:25;28.70;99.90
4643;DHT22;2334;48.710;9.622;2023-06-22T08:25:52;28.40;99.90
4643;DHT22;2334;48.710;9.622;2023-06-22T08:28:19;28.40;99.90
4643;DHT22;2334;48.710;9.622;2023-06-22T08:30:46;28.60;99.90
4643;DHT22;2334;48.710;9.622;2023-06-22T08:33:13;28.60;99.90
4643;DHT22;2334;48.710;9.622;2023-06-22T08:35:39;28.70;99.90
4643;DHT22;2334;48.710;9.622;2023-06-22T08:38:08;28.70;99.90
4643;DHT22;2334;48.710;9.622;2023-06-22T08:40:35;29.10;99.90
4643;DHT22;2334;48.710;9.622;2023-06-22T08:43:02;28.90;99.90
4643;DHT22;2334;48.710;9.622;2023-06-22T08:45:28;28.80;99.90
4643;DHT22;2334;48.710;9.622;2023-06-22T08:47:55;29.20;99.90
4643;DHT22;2334;48.710;9.622;2023-06-22T08:50:22;29.50;99.90
4643;DHT22;2334;48.710;9.622;2023-06-22T08:52:49;29.70;99.90
4643;DHT22;2334;48.710;9.622;2023-06-22T08:55:18;29.70;99.90
4643;DHT22;2334;48.710;9.622;2023-06-22T08:57:45;29.80;99.90
4643;DHT22;2334;48.710;9.622;2023-06-22T09:00:13;29.90;99.90
4643;DHT22;2334;48.710;9.622;2023-06-22T09:02:45;30.00;99.90
4643;DHT22;2334;48.710;9.622;2023-06-22T09:05:12;29.80;99.90
4643;DHT22;2334;48.710;9.622;2023-06-22T09:07:55;29.80;99.90
4643;DHT22;2334;48.710;9.622;2023-06-22T09:10:25;29.90;99.90
4643;DHT22;2334;48.710;9.622;2023-06-22T09:12:52;30.10;99.90
4643;DHT22;2334;48.710;9.622;2023-06-22T09:15:19;30.10;99.90
4643;DHT22;2334;48.710;9.622;2023-06-22T09:17:46;30.20;99.90
4643;DHT22;2334;48.710;9.622;2023-06-22T09:20:13;30.30;99.90
4643;DHT22;2334;48.710;9.622;2023-06-22T09:22:40;30.60;99.90
4643;DHT22;2334;48.710;9.622;2023-06-22T09:25:08;30.50;99.90
4643;DHT22;2334;48.710;9.622;2023-06-22T09:27:36;30.30;99.90
4643;DHT22;2334;48.710;9.622;2023-06-22T09:30:04;30.20;99.90
4643;DHT22;2334;48.710;9.622;2023-06-22T09:32:32;30.20;99.90
4643;DHT22;2334;48.710;9.622;2023-06-22T09:34:59;30.00;99.90
4643;DHT22;2334;48.710;9.622;2023-06-22T09:37:25;30.00;99.90
4643;DHT22;2334;48.710;9.622;2023-06-22T09:39:53;30.40;99.90
4643;DHT22;2334;48.710;9.622;2023-06-22T09:42:20;30.40;99.90
4643;DHT22;2334;48.710;9.622;2023-06-22T09:44:48;30.70;99.90
4643;DHT22;2334;48.710;9.622;2023-06-22T09:47:15;31.00;99.90
4643;DHT22;2334;48.710;9.622;2023-06-22T09:49:42;31.10;99.90
4643;DHT22;2334;48.710;9.622;2023-06-22T09:52:09;31.40;99.90
4643;DHT22;2334;48.710;9.622;2023-06-22T09:54:36;31.70;99.90
4643;DHT22;2334;48.710;9.622;2023-06-22T09:57:04;31.50;99.90
4643;DHT22;2334;48.710;9.622;2023-06-22T09:59:31;31.40;99.90
4643;DHT22;2334;48.710;9.622;2023-06-22T10:01:59;31.80;99.90
4643;DHT22;2334;48.710;9.622;2023-06-22T10:04:26;31.80;99.90
4643;DHT22;2334;48.710;9.622;2023-06-22T10:06:53;31.80;99.90
4643;DHT22;2334;48.710;9.622;2023-06-22T10:09:19;31.80;99.90
4643;DHT22;2334;48.710;9.622;2023-06-22T10:11:47;31.80;99.90
4643;DHT22;2334;48.710;9.622;2023-06-22T10:14:13;32.30;99.90
4643;DHT22;2334;48.710;9.622;2023-06-22T10:16:40;32.50;99.90
4643;DHT22;2334;48.710;9.622;2023-06-22T10:19:09;32.60;99.90
4643;DHT22;2334;48.710;9.622;2023-06-22T10:21:36;32.90;99.90
4643;DHT22;2334;48.710;9.622;2023-06-22T10:24:03;33.20;99.90
4643;DHT22;2334;48.710;9.622;2023-06-22T10:26:32;32.80;99.90
4643;DHT22;2334;48.710;9.622;2023-06-22T10:28:59;32.70;99.90
4643;DHT22;2334;48.710;9.622;2023-06-22T10:31:26;32.30;99.90
4643;DHT22;2334;48.710;9.622;2023-06-22T10:33:54;32.30;99.90
4643;DHT22;2334;48.710;9.622;2023-06-22T10:36:22;32.40;99.90
4643;DHT22;2334;48.710;9.622;2023-06-22T10:38:49;32.40;99.90
4643;DHT22;2334;48.710;9.622;2023-06-22T10:41:18;32.30;99.90
4643;DHT22;2334;48.710;9.622;2023-06-22T10:43:45;32.70;99.90
4643;DHT22;2334;48.710;9.622;2023-06-22T10:46:12;33.10;99.90
4643;DHT22;2334;48.710;9.622;2023-06-22T10:48:39;32.70;99.90
4643;DHT22;2334;48.710;9.622;2023-06-22T10:51:06;32.90;99.90
4643;DHT22;2334;48.710;9.622;2023-06-22T10:53:34;33.30;99.90
4643;DHT22;2334;48.710;9.622;2023-06-22T10:56:01;33.10;99.90
4643;DHT22;2334;48.710;9.622;2023-06-22T10:58:28;33.60;99.90
4643;DHT22;2334;48.710;9.622;2023-06-22T11:00:55;33.60;99.90
4643;DHT22;2334;48.710;9.622;2023-06-22T11:03:21;33.30;99.90
4643;DHT22;2334;48.710;9.622;2023-06-22T11:05:48;33.50;99.90
4643;DHT22;2334;48.710;9.622;2023-06-22T11:08:15;33.20;99.90
4643;DHT22;2334;48.710;9.622;2023-06-22T11:10:44;33.60;99.90
4643;DHT22;2334;48.710;9.622;2023-06-22T11:13:11;33.40;99.90
4643;DHT22;2334;48.710;9.622;2023-06-22T11:15:42;33.20;99.90
4643;DHT22;2334;48.710;9.622;2023-06-22T11:18:11;33.10;99.90
4643;DHT22;2334;48.710;9.622;2023-06-22T11:20:38;33.00;99.90
4643;DHT22;2334;48.710;9.622;2023-06-22T11:23:06;33.40;99.90
4643;DHT22;2334;48.710;9.622;2023-06-22T11:25:33;33.20;99.90
4643;DHT22;2334;48.710;9.622;2023-06-22T11:28:03;32.90;99.90
4643;DHT22;2334;48.710;9.622;2023-06-22T11:30:30;32.80;99.90
4643;DHT22;2334;48.710;9.622;2023-06-22T11:32:58;32.80;99.90
4643;DHT22;2334;48.710;9.622;2023-06-22T11:35:26;33.10;99.90
4643;DHT22;2334;48.710;9.622;2023-06-22T11:37:53;33.30;99.90
4643;DHT22;2334;48.710;9.622;2023-06-22T11:40:21;33.50;99.90
4643;DHT22;2334;48.710;9.622;2023-06-22T11:42:54;33.30;99.90
4643;DHT22;2334;48.710;9.622;2023-06-22T11:45:23;32.80;99.90
4643;DHT22;2334;48.710;9.622;2023-06-22T11:47:50;33.10;99.90
4643;DHT22;2334;48.710;9.622;2023-06-22T11:50:17;33.20;99.90
4643;DHT22;2334;48.710;9.622;2023-06-22T11:52:44;33.30;99.90
4643;DHT22;2334;48.710;9.622;2023-06-22T11:55:11;33.20;99.90
4643;DHT22;2334;48.710;9.622;2023-06-22T11:57:51;32.80;99.90
4643;DHT22;2334;48.710;9.622;2023-06-22T12:00:19;32.70;99.90
4643;DHT22;2334;48.710;9.622;2023-06-22T12:02:49;32.40;99.90
4643;DHT22;2334;48.710;9.622;2023-06-22T12:05:17;32.40;99.90
4643;DHT22;2334;48.710;9.622;2023-06-22T12:07:44;32.50;99.90
4643;DHT22;2334;48.710;9.622;2023-06-22T12:10:11;32.40;99.90
4643;DHT22;2334;48.710;9.622;2023-06-22T12:12:38;32.30;99.90
4643;DHT22;2334;48.710;9.622;2023-06-22T12:15:05;32.10;99.90
4643;DHT22;2334;48.710;9.622;2023-06-22T12:17:34;32.20;99.90
4643;DHT22;2334;48.710;9.622;2023-06-22T12:20:03;32.50;99.90
4643;DHT22;2334;48.710;9.622;2023-06-22T12:22:32;32.80;99.90
4643;DHT22;2334;48.710;9.622;2023-06-22T12:24:59;33.10;99.90
4643;DHT22;2334;48.710;9.622;2023-06-22T12:27:26;33.40;99.90
4643;DHT22;2334;48.710;9.622;2023-06-22T12:29:53;33.20;99.90
4643;DHT22;2334;48.710;9.622;2023-06-22T12:32:20;33.30;99.90
4643;DHT22;2334;48.710;9.622;2023-06-22T12:34:47;33.60;99.90
4643;DHT22;2334;48.710;9.622;2023-06-22T12:37:16;33.20;99.90
4643;DHT22;2334;48.710;9.622;2023-06-22T12:39:43;33.20;99.90
4643;DHT22;2334;48.710;9.622;2023-06-22T12:42:10;32.80;99.90
4643;DHT22;2334;48.710;9.622;2023-06-22T12:44:38;32.70;99.90
4643;DHT22;2334;48.710;9.622;2023-06-22T12:47:05;32.70;99.90
4643;DHT22;2334;48.710;9.622;2023-06-22T12:49:33;32.70;99.90
4643;DHT22;2334;48.710;9.622;2023-06-22T12:52:00;32.80;99.90
4643;DHT22;2334;48.710;9.622;2023-06-22T12:54:29;32.60;99.90
4643;DHT22;2334;48.710;9.622;2023-06-22T12:56:56;32.50;99.90
4643;DHT22;2334;48.710;9.622;2023-06-22T12:59:23;32.30;99.90
4643;DHT22;2334;48.710;9.622;2023-06-22T13:01:49;32.20;99.90
4643;DHT22;2334;48.710;9.622;2023-06-22T13:04:16;32.30;99.90
4643;DHT22;2334;48.710;9.622;2023-06-22T13:06:44;32.30;99.90
4643;DHT22;2334;48.710;9.622;2023-06-22T13:09:14;32.40;99.90
4643;DHT22;2334;48.710;9.622;2023-06-22T13:11:43;32.20;99.90
4643;DHT22;2334;48.710;9.622;2023-06-22T13:14:09;32.10;99.90
4643;DHT22;2334;48.710;9.622;2023-06-22T13:16:36;32.00;99.90
4643;DHT22;2334;48.710;9.622;2023-06-22T13:19:03;32.10;99.90
4643;DHT22;2334;48.710;9.622;2023-06-22T13:21:30;32.30;99.90
4643;DHT22;2334;48.710;9.622;2023-06-22T13:23:59;32.40;99.90
4643;DHT22;2334;48.710;9.622;2023-06-22T13:26:26;32.30;99.90
4643;DHT22;2334;48.710;9.622;2023-06-22T13:28:55;32.30;99.90
4643;DHT22;2334;48.710;9.622;2023-06-22T13:31:22;32.30;99.90
4643;DHT22;2334;48.710;9.622;2023-06-22T13:33:49;32.40;99.90
4643;DHT22;2334;48.710;9.622;2023-06-22T13:36:18;32.30;99.90
4643;DHT22;2334;48.710;9.622;2023-06-22T13:38:45;32.50;99.90
4643;DHT22;2334;48.710;9.622;2023-06-22T13:41:12;32.60;99.90
4643;DHT22;2334;48.710;9.622;2023-06-22T13:43:39;32.80;99.90
4643;DHT22;2334;48.710;9.622;2023-06-22T13:46:08;33.00;99.90
4643;DHT22;2334;48.710;9.622;2023-06-22T13:48:35;33.20;99.90
4643;DHT22;2334;48.710;9.622;2023-06-22T13:51:02;33.40;99.90
4643;DHT22;2334;48.710;9.622;2023-06-22T13:53:29;33.40;99.90
4643;DHT22;2334;48.710;9.622;2023-06-22T13:55:56;33.70;99.90
4643;DHT22;2334;48.710;9.622;2023-06-22T13:58:24;33.90;99.90
4643;DHT22;2334;48.710;9.622;2023-06-22T14:00:51;33.80;99.90
4643;DHT22;2334;48.710;9.622;2023-06-22T14:03:19;33.70;99.90
4643;DHT22;2334;48.710;9.622;2023-06-22T14:05:46;33.50;99.90
4643;DHT22;2334;48.710;9.622;2023-06-22T14:08:13;33.20;99.90
4643;DHT22;2334;48.710;9.622;2023-06-22T14:10:41;33.30;99.90
4643;DHT22;2334;48.710;9.622;2023-06-22T14:13:07;33.30;99.90
4643;DHT22;2334;48.710;9.622;2023-06-22T14:15:34;33.20;99.90
4643;DHT22;2334;48.710;9.622;2023-06-22T14:18:01;33.10;99.90
4643;DHT22;2334;48.710;9.622;2023-06-22T14:20:29;33.10;99.90
4643;DHT22;2334;48.710;9.622;2023-06-22T14:22:56;33.00;99.90
4643;DHT22;2334;48.710;9.622;2023-06-22T14:25:23;33.00;99.90
4643;DHT22;2334;48.710;9.622;2023-06-22T14:27:50;32.90;99.90
4643;DHT22;2334;48.710;9.622;2023-06-22T14:30:17;33.00;99.90
4643;DHT22;2334;48.710;9.622;2023-06-22T14:32:44;33.20;99.90
4643;DHT22;2334;48.710;9.622;2023-06-22T14:35:11;33.10;99.90
4643;DHT22;2334;48.710;9.622;2023-06-22T14:37:39;33.10;99.90
4643;DHT22;2334;48.710;9.622;2023-06-22T14:40:07;33.10;99.90
4643;DHT22;2334;48.710;9.622;2023-06-22T14:42:34;33.20;99.90
4643;DHT22;2334;48.710;9.622;2023-06-22T14:45:01;33.30;99.90
4643;DHT22;2334;48.710;9.622;2023-06-22T14:47:28;33.60;99.90
4643;DHT22;2334;48.710;9.622;2023-06-22T14:49:55;34.00;99.90
4643;DHT22;2334;48.710;9.622;2023-06-22T14:52:21;34.20;99.90
4643;DHT22;2334;48.710;9.622;2023-06-22T14:54:50;34.20;99.90
4643;DHT22;2334;48.710;9.622;2023-06-22T14:57:18;34.20;99.90
4643;DHT22;2334;48.710;9.622;2023-06-22T14:59:45;34.60;99.90
4643;DHT22;2334;48.710;9.622;2023-06-22T15:02:12;34.60;99.90
4643;DHT22;2334;48.710;9.622;2023-06-22T15:04:40;34.60;99.90
4643;DHT22;2334;48.710;9.622;2023-06-22T15:07:06;34.70;99.90
4643;DHT22;2334;48.710;9.622;2023-06-22T15:09:33;34.60;99.90
4643;DHT22;2334;48.710;9.622;2023-06-22T15:12:03;34.50;99.90
4643;DHT22;2334;48.710;9.622;2023-06-22T15:14:33;34.40;99.90
4643;DHT22;2334;48.710;9.622;2023-06-22T15:17:00;34.20;99.90
4643;DHT22;2334;48.710;9.622;2023-06-22T15:19:27;33.90;99.90
4643;DHT22;2334;48.710;9.622;2023-06-22T15:21:54;33.70;99.90
4643;DHT22;2334;48.710;9.622;2023-06-22T15:24:20;33.90;99.90
4643;DHT22;2334;48.710;9.622;2023-06-22T15:26:47;34.20;99.90
4643;DHT22;2334;48.710;9.622;2023-06-22T15:29:15;34.60;99.90
4643;DHT22;2334;48.710;9.622;2023-06-22T15:31:42;34.90;99.90
4643;DHT22;2334;48.710;9.622;2023-06-22T15:34:09;34.90;99.90
4643;DHT22;2334;48.710;9.622;2023-06-22T15:36:37;34.90;99.60
4643;DHT22;2334;48.710;9.622;2023-06-22T15:39:04;34.50;99.90
4643;DHT22;2334;48.710;9.622;2023-06-22T15:41:31;34.70;99.90
4643;DHT22;2334;48.710;9.622;2023-06-22T15:43:58;34.70;99.90
4643;DHT22;2334;48.710;9.622;2023-06-22T15:46:26;34.80;99.90
4643;DHT22;2334;48.710;9.622;2023-06-22T15:48:53;35.10;99.90
4643;DHT22;2334;48.710;9.622;2023-06-22T15:51:20;35.10;99.90
4643;DHT22;2334;48.710;9.622;2023-06-22T15:53:47;35.00;99.90
4643;DHT22;2334;48.710;9.622;2023-06-22T15:56:13;35.10;99.90
4643;DHT22;2334;48.710;9.622;2023-06-22T15:58:41;35.40;99.90
4643;DHT22;2334;48.710;9.622;2023-06-22T16:01:08;35.30;99.90
4643;DHT22;2334;48.710;9.622;2023-06-22T16:03:36;35.10;99.90
4643;DHT22;2334;48.710;9.622;2023-06-22T16:06:04;34.70;99.90